Time;durP1;ratioP1;P1;durP2;ratioP2;P2;SDS_P1;SDS_P2;PMS_P1;PMS_P2;Temp;Humidity;BMP_temperature;BMP_pressure;BME280_temperature;BME280_humidity;BME280_pressure;Samples;Min_cycle;Max_cycle;Signal;HPM_P1;HPM_P2
2021/10/01 00:03:59;;;;;;;2.58;1.67;;;;;;;9.84;61.53;100993.41;8715732;33;20191;-75
2021/10/01 00:09:03;;;;;;;2.30;1.60;;;;;;;9.86;61.41;100991.53;8716036;33;20854;-75
2021/10/01 00:14:06;;;;;;;2.13;1.67;;;;;;;9.78;61.45;100975.06;8715326;33;20184;-75
2021/10/01 00:19:10;;;;;;;4.00;1.80;;;;;;;9.86;61.12;100982.63;8715286;33;20179;-75
2021/10/01 00:24:14;;;;;;;4.53;1.88;;;;;;;9.80;61.23;100977.66;8715246;33;20179;-75
2021/10/01 00:29:17;;;;;;;5.43;2.22;;;;;;;9.95;60.93;100963.19;8690355;33;22720;-75
2021/10/01 00:34:21;;;;;;;3.60;1.63;;;;;;;9.81;61.27;100957.88;8715049;33;20302;-75
2021/10/01 00:39:24;;;;;;;3.42;2.10;;;;;;;9.92;60.70;100958.03;8715083;33;20172;-75
2021/10/01 00:44:28;;;;;;;2.83;1.63;;;;;;;9.89;60.62;100951.06;8690451;33;20247;-75
2021/10/01 00:49:32;;;;;;;2.25;1.63;;;;;;;9.94;60.40;100948.91;8714812;33;20279;-75
2021/10/01 00:54:36;;;;;;;2.88;1.65;;;;;;;9.93;60.20;100941.84;8693440;33;20179;-75
2021/10/01 00:59:39;;;;;;;1.63;1.45;;;;;;;9.94;60.25;100929.28;8694627;33;20222;-75
2021/10/01 01:04:45;;;;;;;2.45;1.58;;;;;;;10.08;59.53;100921.09;8694850;33;20507;-75
2021/10/01 01:09:59;;;;;;;3.08;1.40;;;;;;;10.08;59.51;100920.25;8695122;33;20191;-75
2021/10/01 01:15:08;;;;;;;2.75;1.50;;;;;;;10.14;59.51;100909.94;8693839;33;20203;-75
2021/10/01 01:20:21;;;;;;;3.55;1.58;;;;;;;10.15;59.41;100906.28;8693935;33;20784;-75
2021/10/01 01:25:54;;;;;;;3.25;1.42;;;;;;;10.12;59.51;100894.91;8694155;33;20554;-75
2021/10/01 01:31:07;;;;;;;2.65;1.40;;;;;;;10.14;59.35;100887.59;8693671;33;20152;-75
2021/10/01 01:36:14;;;;;;;2.25;1.33;;;;;;;10.09;59.63;100893.31;8718403;33;20268;-75
2021/10/01 01:41:18;;;;;;;3.63;1.42;;;;;;;10.00;59.57;100898.47;8693958;33;20191;-74
2021/10/01 01:46:22;;;;;;;2.42;1.50;;;;;;;10.03;59.73;100895.56;8693287;33;20190;-75
2021/10/01 01:51:34;;;;;;;5.22;2.47;;;;;;;9.93;59.85;100887.31;8693847;33;22188;-74
2021/10/01 01:56:41;;;;;;;1.83;1.50;;;;;;;9.98;59.99;100876.22;8692882;33;20179;-75
2021/10/01 02:01:45;;;;;;;1.98;1.38;;;;;;;10.07;59.61;100875.59;8693051;33;20183;-75
2021/10/01 02:06:55;;;;;;;3.05;1.40;;;;;;;10.05;59.68;100869.47;8692938;33;20128;-75
2021/10/01 02:11:58;;;;;;;6.03;1.90;;;;;;;9.96;59.76;100859.41;8693164;33;20188;-75
2021/10/01 02:17:02;;;;;;;3.15;1.70;;;;;;;9.89;60.05;100854.44;8692698;33;20711;-75
2021/10/01 02:22:08;;;;;;;3.58;1.45;;;;;;;9.83;60.50;100848.63;8692993;33;20148;-75
2021/10/01 02:27:21;;;;;;;3.55;1.50;;;;;;;9.83;60.19;100837.91;8693151;33;20655;-74
2021/10/01 02:32:32;;;;;;;4.80;1.48;;;;;;;9.76;60.29;100850.88;8669680;33;20188;-74
2021/10/01 02:37:38;;;;;;;2.33;1.48;;;;;;;9.82;60.13;100837.06;8715667;33;20171;-74
2021/10/01 02:42:41;;;;;;;3.88;1.60;;;;;;;9.82;60.06;100836.16;8692775;33;20249;-74
2021/10/01 02:47:44;;;;;;;2.90;1.50;;;;;;;9.77;60.34;100825.78;8691834;33;20291;-75
2021/10/01 02:52:55;;;;;;;3.72;1.67;;;;;;;9.63;60.85;100820.53;8691925;33;21650;-75
2021/10/01 02:58:17;;;;;;;1.95;1.67;;;;;;;9.57;61.16;100816.47;8691961;33;20434;-74
2021/10/01 03:03:23;;;;;;;3.03;1.60;;;;;;;9.51;61.38;100811.50;8691559;33;20191;-75
2021/10/01 03:08:31;;;;;;;2.60;1.80;;;;;;;9.48;61.53;100812.56;8691979;33;20187;-74
2021/10/01 03:13:35;;;;;;;2.83;1.70;;;;;;;9.42;61.60;100804.13;8715721;33;20771;-75
2021/10/01 03:18:39;;;;;;;6.25;1.88;;;;;;;9.46;61.84;100806.47;8716259;33;20692;-75
2021/10/01 03:23:47;;;;;;;2.83;1.38;;;;;;;9.37;61.81;100800.88;8716211;33;20156;-75
2021/10/01 03:28:50;;;;;;;2.75;1.40;;;;;;;9.41;61.56;100795.22;8691985;33;20706;-74
2021/10/01 03:33:55;;;;;;;4.03;1.60;;;;;;;9.39;61.67;100802.50;8690833;33;20221;-75
2021/10/01 03:38:59;;;;;;;2.03;1.20;;;;;;;9.42;61.77;100786.19;8716049;33;21046;-75
2021/10/01 03:44:04;;;;;;;2.53;1.80;;;;;;;9.39;61.74;100799.81;8691603;33;20163;-75
2021/10/01 03:49:07;;;;;;;4.03;1.50;;;;;;;9.35;61.89;100789.41;8691115;33;20325;-75
2021/10/01 03:54:12;;;;;;;2.55;1.20;;;;;;;9.33;61.88;100786.00;8690270;33;20187;-75
2021/10/01 03:59:15;;;;;;;4.82;1.40;;;;;;;9.25;62.09;100784.69;8690986;33;20241;-74
2021/10/01 04:04:18;;;;;;;1.90;1.40;;;;;;;9.23;62.23;100781.25;8690349;33;20695;-75
2021/10/01 04:09:22;;;;;;;2.03;1.38;;;;;;;9.19;62.46;100777.09;8694238;33;20236;-74
2021/10/01 04:14:27;;;;;;;2.28;1.48;;;;;;;9.16;62.26;100771.94;8690628;33;20523;-75
2021/10/01 04:19:31;;;;;;;2.92;1.27;;;;;;;9.35;61.86;100781.34;8690912;33;21970;-74
2021/10/01 04:24:41;;;;;;;4.25;1.70;;;;;;;9.38;61.39;100771.31;8689899;33;20188;-74
2021/10/01 04:29:45;;;;;;;3.08;1.60;;;;;;;9.50;61.10;100759.69;8694687;33;20195;-75
2021/10/01 04:34:59;;;;;;;2.53;1.35;;;;;;;9.53;60.94;100761.31;8695255;33;20205;-74
2021/10/01 04:40:05;;;;;;;2.38;1.30;;;;;;;9.44;61.37;100767.31;8720562;33;20704;-75
2021/10/01 04:45:09;;;;;;;2.53;1.70;;;;;;;9.50;61.16;100769.56;8694953;33;20769;-75
2021/10/01 04:50:12;;;;;;;3.10;1.30;;;;;;;9.56;60.87;100770.97;8695197;33;20183;-75
2021/10/01 04:55:16;;;;;;;3.25;1.50;;;;;;;9.54;60.95;100767.53;8695062;33;20418;-75
2021/10/01 05:00:20;;;;;;;6.38;1.77;;;;;;;9.53;60.92;100755.94;8694920;33;20220;-75
2021/10/01 05:05:41;;;;;;;2.65;1.35;;;;;;;9.51;60.99;100755.19;8719575;33;20183;-75
2021/10/01 05:11:04;;;;;;;2.30;1.40;;;;;;;9.51;61.01;100752.50;8719637;33;20140;-75
2021/10/01 05:16:26;;;;;;;3.55;1.80;;;;;;;9.54;60.77;100749.59;8719399;33;20455;-75
2021/10/01 05:21:48;;;;;;;3.10;1.58;;;;;;;9.59;60.50;100746.59;8719354;33;20171;-75
2021/10/01 05:26:52;;;;;;;1.98;1.55;;;;;;;9.64;60.37;100737.25;8693849;33;20696;-75
2021/10/01 05:31:56;;;;;;;2.47;1.27;;;;;;;9.64;60.16;100739.94;8718576;33;21074;-75
2021/10/01 05:36:59;;;;;;;3.75;1.67;;;;;;;9.68;60.20;100736.09;8717493;33;20524;-75
2021/10/01 05:42:04;;;;;;;3.00;1.40;;;;;;;9.78;60.03;100717.47;8693659;33;20187;-75
2021/10/01 05:47:08;;;;;;;3.35;1.30;;;;;;;9.77;59.97;100718.47;8692996;33;20271;-75
2021/10/01 05:52:49;;;;;;;2.03;1.33;;;;;;;9.73;60.02;100717.81;8718681;33;20151;-74
2021/10/01 05:58:12;;;;;;;3.55;1.40;;;;;;;9.88;59.64;100718.56;8718141;33;20175;-73
2021/10/01 06:03:25;;;;;;;2.17;1.20;;;;;;;9.87;59.61;100719.56;8694227;33;20191;-74
2021/10/01 06:08:28;;;;;;;3.80;1.95;;;;;;;9.92;59.36;100725.41;8694099;33;20227;-74
2021/10/01 06:13:33;;;;;;;2.85;1.50;;;;;;;9.94;59.18;100726.16;8741760;33;20139;-74
2021/10/01 06:18:37;;;;;;;2.35;1.58;;;;;;;10.04;58.73;100714.75;8776785;33;20436;-74
2021/10/01 06:23:41;;;;;;;3.85;1.42;;;;;;;10.08;58.88;100709.06;8776342;33;20132;-74
2021/10/01 06:28:46;;;;;;;3.95;1.30;;;;;;;10.16;58.89;100703.13;8755535;33;20143;-74
2021/10/01 06:33:49;;;;;;;3.95;1.58;;;;;;;10.23;58.55;100712.44;8709827;33;20192;-74
2021/10/01 06:38:52;;;;;;;4.55;1.48;;;;;;;10.51;57.74;100707.69;8717388;33;20467;-74
2021/10/01 06:43:59;;;;;;;1.60;1.30;;;;;;;10.55;57.77;100709.16;8717694;33;20982;-73
2021/10/01 06:49:16;;;;;;;2.88;1.35;;;;;;;10.61;57.61;100722.09;8716907;33;20229;-74
2021/10/01 08:20:10;;;;;;;3.55;1.25;;;;;;;13.33;52.00;100698.16;8720334;33;21177;-74
2021/10/01 08:25:13;;;;;;;2.80;1.08;;;;;;;13.73;51.61;100689.22;8720900;33;20683;-74
2021/10/01 08:30:16;;;;;;;5.38;1.48;;;;;;;14.73;49.42;100678.28;8719912;33;20724;-74
2021/10/01 08:35:22;;;;;;;2.10;0.90;;;;;;;14.97;47.91;100685.91;8694799;33;20180;-74
2021/10/01 08:40:26;;;;;;;1.80;1.27;;;;;;;14.33;49.67;100683.78;8720270;33;20200;-74
2021/10/01 08:45:29;;;;;;;2.97;1.00;;;;;;;14.00;50.91;100688.59;8719867;33;20778;-75
2021/10/01 08:50:34;;;;;;;2.90;1.20;;;;;;;13.79;50.71;100672.47;8719871;33;20175;-74
2021/10/01 08:55:38;;;;;;;3.83;1.25;;;;;;;13.62;50.67;100667.75;8719492;33;20129;-74
2021/10/01 09:00:41;;;;;;;1.77;1.52;;;;;;;14.55;49.64;100651.09;8692190;33;20321;-74
2021/10/01 09:05:46;;;;;;;1.95;1.00;;;;;;;15.02;48.06;100651.16;8661360;33;20192;-74
2021/10/01 09:11:00;;;;;;;1.83;1.63;;;;;;;15.13;47.43;100647.41;8661889;33;20198;-74
2021/10/01 09:16:08;;;;;;;4.20;1.20;;;;;;;15.88;47.62;100653.66;8684649;33;21111;-74
2021/10/01 09:21:15;;;;;;;2.20;1.00;;;;;;;15.75;46.05;100657.72;8718778;33;20184;-74
2021/10/01 09:26:21;;;;;;;1.65;1.08;;;;;;;15.47;47.58;100642.34;8719280;33;20155;-74
2021/10/01 09:31:46;;;;;;;2.17;1.10;;;;;;;15.80;46.57;100636.47;8718968;33;20551;-74
2021/10/01 09:37:01;;;;;;;1.15;0.98;;;;;;;15.01;48.18;100638.63;8709340;33;20816;-74
2021/10/01 09:42:16;;;;;;;1.42;1.33;;;;;;;15.95;45.98;100636.78;8718638;33;20643;-74
2021/10/01 09:47:28;;;;;;;3.25;1.67;;;;;;;15.63;46.73;100630.84;8715133;33;20187;-75
2021/10/01 09:52:44;;;;;;;1.42;1.15;;;;;;;14.60;49.64;100615.53;8716219;33;20206;-74
2021/10/01 09:58:05;;;;;;;2.22;0.95;;;;;;;14.38;50.42;100617.56;8716400;33;20136;-74
2021/10/01 10:03:09;;;;;;;4.85;1.10;;;;;;;14.27;51.12;100617.66;8716200;33;20536;-74
2021/10/01 10:08:14;;;;;;;6.20;1.73;;;;;;;14.81;50.29;100607.25;8718268;33;20248;-74
2021/10/01 10:13:17;;;;;;;2.35;1.40;;;;;;;16.27;48.05;100598.34;8717538;33;20651;-74
2021/10/01 10:18:20;;;;;;;1.85;1.30;;;;;;;17.69;45.11;100588.81;8718356;33;20221;-74
2021/10/01 10:23:25;;;;;;;3.03;1.38;;;;;;;18.14;44.43;100582.09;8716798;33;20238;-74
2021/10/01 10:28:29;;;;;;;3.28;1.02;;;;;;;18.67;42.43;100579.84;8718865;33;20194;-74
2021/10/01 10:33:43;;;;;;;1.48;0.98;;;;;;;18.47;41.93;100571.22;8715598;33;20271;-73
2021/10/01 10:38:48;;;;;;;1.48;1.27;;;;;;;17.72;41.99;100563.19;8718015;33;20258;-73
2021/10/01 10:43:51;;;;;;;2.20;1.05;;;;;;;17.70;41.49;100557.06;8717101;33;20646;-73
2021/10/01 10:49:21;;;;;;;2.53;1.10;;;;;;;18.04;42.20;100546.06;8715880;33;20136;-74
2021/10/01 10:54:26;;;;;;;3.83;1.00;;;;;;;18.51;39.49;100550.84;8715500;33;20240;-74
2021/10/01 10:59:30;;;;;;;2.70;0.98;;;;;;;18.46;38.76;100542.34;8715327;33;20877;-73
2021/10/01 11:04:36;;;;;;;3.28;1.00;;;;;;;18.10;37.73;100539.97;8716334;33;20270;-75
2021/10/01 11:09:41;;;;;;;1.52;0.88;;;;;;;18.24;37.92;100554.75;8716529;33;20186;-75
2021/10/01 11:14:44;;;;;;;0.80;0.80;;;;;;;18.20;37.73;100566.97;8715995;33;20653;-75
2021/10/01 11:19:54;;;;;;;2.63;1.00;;;;;;;18.43;37.44;100520.06;8716257;33;20198;-75
2021/10/01 11:25:06;;;;;;;2.63;0.90;;;;;;;18.40;37.12;100534.00;8715803;33;20190;-73
2021/10/01 11:30:12;;;;;;;2.67;1.00;;;;;;;19.14;35.49;100508.31;8716355;33;20148;-73
2021/10/01 11:35:16;;;;;;;3.10;1.15;;;;;;;19.72;34.77;100510.72;8715253;33;20647;-74
2021/10/01 11:40:24;;;;;;;1.38;0.98;;;;;;;19.65;33.79;100492.38;8715851;33;20195;-73
2021/10/01 11:45:32;;;;;;;2.58;1.00;;;;;;;20.55;32.81;100477.94;8715017;33;20267;-73
2021/10/01 11:50:39;;;;;;;2.60;0.95;;;;;;;20.31;32.93;100476.31;8715921;33;20175;-74
2021/10/01 11:55:53;;;;;;;4.70;1.08;;;;;;;21.29;31.54;100474.31;8715263;33;20446;-73
2021/10/01 12:01:08;;;;;;;1.48;0.75;;;;;;;21.11;30.03;100482.06;8715271;33;20187;-74
2021/10/01 12:06:12;;;;;;;0.77;0.77;;;;;;;21.54;30.40;100465.75;8715255;33;20179;-73
2021/10/01 12:11:25;;;;;;;1.63;0.90;;;;;;;21.35;30.72;100464.50;8715384;33;20184;-74
2021/10/01 12:16:29;;;;;;;1.88;0.70;;;;;;;20.37;31.61;100433.81;8715326;33;20680;-74
2021/10/01 12:21:35;;;;;;;2.55;0.75;;;;;;;19.51;33.12;100435.06;8714951;33;20218;-73
2021/10/01 12:26:41;;;;;;;1.05;0.85;;;;;;;19.28;33.75;100433.19;8714713;33;20502;-73
2021/10/01 12:31:48;;;;;;;2.20;1.20;;;;;;;20.39;32.47;100423.56;8715088;33;20636;-74
2021/10/01 12:36:53;;;;;;;1.65;1.20;;;;;;;21.19;30.86;100424.59;8714898;33;20144;-74
2021/10/01 12:42:00;;;;;;;2.75;0.90;;;;;;;19.86;33.16;100412.66;8692430;33;20195;-73
2021/10/01 12:47:13;;;;;;;2.53;1.23;;;;;;;20.78;32.34;100404.13;8715915;33;20289;-73
2021/10/01 12:52:21;;;;;;;1.27;0.77;;;;;;;21.32;31.28;100408.38;8694981;33;20234;-74
2021/10/01 12:57:37;;;;;;;1.40;0.98;;;;;;;21.84;31.68;100396.25;8718904;33;20598;-74
2021/10/01 13:02:43;;;;;;;1.05;0.95;;;;;;;21.23;32.55;100399.44;8719311;33;20203;-74
2021/10/01 13:07:48;;;;;;;3.25;1.08;;;;;;;21.98;31.31;100385.44;8718910;33;20591;-74
2021/10/01 13:12:56;;;;;;;1.77;1.05;;;;;;;22.60;28.68;100390.03;8718774;33;20249;-73
2021/10/01 13:18:17;;;;;;;3.67;0.93;;;;;;;21.88;29.97;100378.41;8719100;33;20183;-73
2021/10/01 13:23:31;;;;;;;1.15;0.85;;;;;;;21.16;30.50;100379.41;8718150;33;21084;-73
2021/10/01 13:28:38;;;;;;;2.47;0.82;;;;;;;20.63;31.17;100377.94;8693535;33;20628;-73
2021/10/01 13:33:42;;;;;;;1.98;1.02;;;;;;;19.61;33.06;100381.19;8718081;33;20187;-74
2021/10/01 13:38:47;;;;;;;0.85;0.85;;;;;;;19.90;32.64;100369.50;8718714;33;20251;-74
2021/10/01 13:43:52;;;;;;;1.38;1.17;;;;;;;19.85;32.82;100358.31;8718175;33;20705;-74
2021/10/01 13:48:56;;;;;;;2.25;0.93;;;;;;;20.09;33.16;100341.69;8718252;33;20243;-74
2021/10/01 13:53:59;;;;;;;1.00;0.90;;;;;;;21.17;31.66;100333.81;8717861;33;20758;-74
2021/10/01 13:59:04;;;;;;;0.70;0.70;;;;;;;21.44;31.81;100318.50;8720768;33;20152;-74
2021/10/01 14:04:07;;;;;;;1.38;0.80;;;;;;;21.32;31.21;100312.75;8717888;33;20899;-74
2021/10/01 14:09:10;;;;;;;1.67;0.88;;;;;;;20.84;32.42;100306.97;8717825;33;20570;-74
2021/10/01 14:14:34;;;;;;;3.35;1.15;;;;;;;20.12;33.15;100305.88;8692764;33;21506;-74
2021/10/01 14:19:37;;;;;;;2.13;0.90;;;;;;;19.88;33.53;100307.03;8718182;33;20519;-74
2021/10/01 14:24:40;;;;;;;3.90;0.80;;;;;;;19.28;34.61;100317.94;8717497;33;20155;-74
2021/10/01 14:30:02;;;;;;;2.38;0.80;;;;;;;18.47;34.73;100317.44;8718915;33;20148;-74
2021/10/01 14:35:08;;;;;;;0.93;0.70;;;;;;;17.98;33.74;100307.59;8718054;33;20217;-74
2021/10/01 14:40:13;;;;;;;0.77;0.77;;;;;;;18.21;33.88;100312.28;8716741;33;20676;-74
2021/10/01 14:45:18;;;;;;;2.78;1.27;;;;;;;18.12;32.95;100315.03;8716748;33;20180;-74
2021/10/01 14:50:21;;;;;;;2.25;1.20;;;;;;;;;;8713823;33;20676;-74
2021/10/01 14:55:24;;;;;;;1.00;0.68;;;;;;;17.95;33.86;100304.38;8710517;33;21671;-74
2021/10/01 15:00:28;;;;;;;0.82;0.73;;;;;;;18.04;33.17;100293.31;8714294;33;21450;-73
2021/10/01 15:05:32;;;;;;;1.27;0.80;;;;;;;18.12;33.88;100304.16;8716271;33;20151;-74
2021/10/01 15:10:35;;;;;;;3.92;1.10;;;;;;;18.12;34.05;100289.72;8716255;33;21025;-74
2021/10/01 15:15:41;;;;;;;2.30;0.80;;;;;;;18.00;34.63;100282.97;8716261;33;20187;-74
2021/10/01 15:20:45;;;;;;;1.48;0.90;;;;;;;17.82;35.44;100281.28;8717641;33;20366;-74
2021/10/01 15:25:48;;;;;;;2.17;0.85;;;;;;;17.80;35.74;100280.63;8715801;33;20136;-74
2021/10/01 15:30:53;;;;;;;3.53;1.10;;;;;;;17.61;36.14;100268.28;8715958;33;20673;-74
2021/10/01 15:35:57;;;;;;;2.53;1.02;;;;;;;17.40;36.36;100268.81;8715328;33;20219;-74
2021/10/01 15:41:00;;;;;;;0.90;0.63;;;;;;;17.17;36.76;100276.00;8715654;33;20306;-74
2021/10/01 15:46:04;;;;;;;1.50;1.00;;;;;;;17.07;36.97;100275.28;8715121;33;20459;-73
2021/10/01 15:51:07;;;;;;;2.05;0.90;;;;;;;16.98;37.33;100275.28;8714923;33;20172;-74
2021/10/01 15:56:10;;;;;;;2.20;1.20;;;;;;;16.92;37.36;100262.38;8714495;33;20179;-74
2021/10/01 16:01:16;;;;;;;3.03;1.60;;;;;;;16.97;37.97;100262.69;8714737;33;20195;-74
2021/10/01 16:06:20;;;;;;;1.75;1.52;;;;;;;16.92;37.93;100267.81;8690639;33;20148;-75
2021/10/01 16:11:23;;;;;;;3.03;1.77;;;;;;;16.79;37.96;100264.75;8715148;33;20743;-74
2021/10/01 16:16:28;;;;;;;4.53;2.45;;;;;;;16.78;38.69;100263.03;8715336;33;20982;-74
2021/10/01 16:21:31;;;;;;;2.92;2.33;;;;;;;16.70;39.63;100261.19;8716142;33;20211;-74
2021/10/01 16:26:34;;;;;;;2.67;1.98;;;;;;;16.56;39.50;100259.09;8719660;33;20183;-74
2021/10/01 16:31:39;;;;;;;3.28;1.73;;;;;;;16.40;39.69;100256.34;8719994;33;20187;-74
2021/10/01 16:36:42;;;;;;;4.00;2.58;;;;;;;16.25;39.75;100251.53;8719611;33;20151;-74
2021/10/01 16:41:45;;;;;;;4.47;2.40;;;;;;;16.12;40.39;100257.41;8719270;33;20282;-73
2021/10/01 16:46:51;;;;;;;2.40;1.63;;;;;;;16.02;41.37;100255.88;8719216;33;21109;-74
2021/10/01 16:51:54;;;;;;;2.45;1.20;;;;;;;15.83;42.79;100265.09;8719911;33;20245;-74
2021/10/01 16:56:57;;;;;;;1.75;0.95;;;;;;;15.61;44.82;100256.50;8716081;33;20136;-73
2021/10/01 17:02:02;;;;;;;3.30;1.38;;;;;;;15.38;46.01;100258.88;8693943;33;20230;-73
2021/10/01 17:07:05;;;;;;;1.48;1.13;;;;;;;15.17;47.18;100261.94;8716089;33;20190;-74
2021/10/01 17:12:09;;;;;;;1.83;1.60;;;;;;;15.01;47.97;100254.53;8715933;33;21962;-73
2021/10/01 17:17:13;;;;;;;1.65;1.52;;;;;;;14.95;48.07;100265.97;8717112;33;20227;-73
2021/10/01 17:22:17;;;;;;;1.40;1.20;;;;;;;14.91;48.46;100248.34;8719511;33;20236;-73
2021/10/01 17:27:20;;;;;;;3.28;2.53;;;;;;;14.85;48.66;100243.56;8718734;33;20261;-75
2021/10/01 17:32:25;;;;;;;3.00;2.10;;;;;;;14.74;48.89;100235.69;8718854;33;20961;-75
2021/10/01 17:37:28;;;;;;;3.85;2.78;;;;;;;14.66;49.11;100244.56;8717663;33;20191;-75
2021/10/01 17:42:32;;;;;;;3.78;2.53;;;;;;;14.55;49.98;100236.69;8714968;33;20180;-75
2021/10/01 17:47:37;;;;;;;2.95;2.25;;;;;;;14.49;50.02;100231.91;8716959;33;20627;-74
2021/10/01 17:52:40;;;;;;;3.60;1.98;;;;;;;14.40;50.35;100235.50;8718289;33;20687;-75
2021/10/01 17:57:43;;;;;;;3.05;1.90;;;;;;;14.29;50.99;100226.59;8717165;33;20174;-74
2021/10/01 18:02:50;;;;;;;3.78;1.88;;;;;;;14.16;51.36;100218.03;8717238;33;20179;-75
2021/10/01 18:07:53;;;;;;;5.97;2.83;;;;;;;14.13;51.42;100213.75;8717719;33;20191;-75
2021/10/01 18:12:56;;;;;;;3.28;2.45;;;;;;;14.11;51.69;100206.81;8717917;33;20236;-75
2021/10/01 18:18:00;;;;;;;4.80;2.00;;;;;;;14.05;52.18;100207.44;8717445;33;20236;-74
2021/10/01 18:23:04;;;;;;;3.15;1.88;;;;;;;13.99;52.42;100203.47;8717790;33;20144;-74
2021/10/01 18:28:07;;;;;;;3.35;2.00;;;;;;;14.03;52.63;100202.16;8717387;33;20228;-74
2021/10/01 18:33:11;;;;;;;6.05;2.10;;;;;;;14.03;52.83;100204.03;8716304;33;20210;-74
2021/10/01 18:38:17;;;;;;;5.03;2.13;;;;;;;14.01;53.05;100208.72;8717565;33;20210;-75
2021/10/01 18:43:20;;;;;;;2.72;1.75;;;;;;;13.94;53.28;100209.31;8694407;33;20248;-74
2021/10/01 18:48:24;;;;;;;2.53;2.20;;;;;;;13.91;53.53;100209.63;8715003;33;20197;-74
2021/10/01 18:53:29;;;;;;;2.75;2.17;;;;;;;13.88;53.84;100211.78;8715246;33;20612;-75
2021/10/01 18:58:32;;;;;;;3.80;2.58;;;;;;;13.90;53.48;100213.34;8717144;33;20152;-76
2021/10/01 19:03:36;;;;;;;4.47;2.17;;;;;;;13.99;52.14;100222.38;8716022;33;20183;-75
2021/10/01 19:08:40;;;;;;;3.28;2.13;;;;;;;14.11;51.86;100213.06;8717177;33;20187;-77
2021/10/01 19:13:45;;;;;;;5.00;2.00;;;;;;;14.16;51.09;100216.16;8716336;33;20592;-75
2021/10/01 19:18:50;;;;;;;3.53;2.60;;;;;;;14.16;50.84;100209.91;8715787;33;20668;-75
2021/10/01 19:24:02;;;;;;;3.72;2.30;;;;;;;14.16;50.74;100202.66;8691300;33;20194;-74
2021/10/01 19:34:28;;;;;;;4.40;1.92;;;;;;;14.07;50.62;100208.97;8715274;33;20233;-75
2021/10/01 19:39:33;;;;;;;4.68;1.80;;;;;;;14.04;50.79;100214.69;8715775;33;20171;-75
2021/10/01 19:44:36;;;;;;;4.22;2.20;;;;;;;14.06;50.40;100212.66;8716510;33;20635;-75
2021/10/01 19:49:41;;;;;;;4.45;2.35;;;;;;;13.96;50.29;100217.28;8715148;33;20179;-75
2021/10/01 19:54:44;;;;;;;2.45;1.48;;;;;;;14.01;50.59;100214.97;8715208;33;21037;-76
2021/10/01 19:59:49;;;;;;;4.25;2.00;;;;;;;14.01;50.22;100217.66;8720371;33;20703;-75
2021/10/01 20:04:53;;;;;;;2.03;1.65;;;;;;;14.02;49.95;100222.09;8720998;33;20245;-75
2021/10/01 20:09:57;;;;;;;2.00;1.80;;;;;;;13.99;49.75;100221.50;8720164;33;20656;-75
2021/10/01 20:15:00;;;;;;;4.25;1.77;;;;;;;14.02;49.54;100216.69;8720242;33;20851;-76
2021/10/01 20:20:14;;;;;;;3.97;2.03;;;;;;;13.96;49.58;100217.28;8720797;33;20191;-73
2021/10/01 20:46:58;;;;;;;4.05;1.70;;;;;;;13.96;49.89;100202.91;8541592;34;20701;-75
2021/10/01 20:52:06;;;;;;;3.65;1.88;;;;;;;13.84;50.37;100186.06;8677764;33;20197;-74
2021/10/01 20:57:14;;;;;;;1.90;1.70;;;;;;;13.86;50.55;100190.31;8692974;33;20759;-75
2021/10/01 21:02:29;;;;;;;2.55;1.88;;;;;;;13.88;51.18;100201.00;8718682;33;20251;-76
2021/10/01 21:40:09;;;;;;;4.65;2.00;;;;;;;13.70;52.99;100193.66;8595572;33;20863;-76
2021/10/01 21:45:14;;;;;;;4.72;1.75;;;;;;;13.73;52.35;100194.38;8717399;33;20455;-77
2021/10/01 21:50:18;;;;;;;2.05;1.80;;;;;;;13.81;52.26;100189.91;8693184;33;20193;-76
2021/10/01 21:55:22;;;;;;;2.25;1.70;;;;;;;13.88;52.37;100180.22;8692858;33;20268;-76
2021/10/01 22:22:11;;;;;;;3.08;1.83;;;;;;;13.73;54.02;100184.44;8716967;33;20187;-77
2021/10/01 22:27:16;;;;;;;2.80;2.20;;;;;;;13.77;53.82;100188.53;8716054;33;20275;-76
2021/10/01 22:32:23;;;;;;;1.85;1.75;;;;;;;13.76;53.56;100167.06;8717008;33;20665;-76
2021/10/01 22:37:26;;;;;;;3.22;1.80;;;;;;;13.46;54.45;100194.19;8691380;33;20191;-75
2021/10/01 22:42:33;;;;;;;3.65;2.10;;;;;;;13.73;54.46;100178.19;8691693;33;20232;-75
2021/10/01 22:47:38;;;;;;;2.60;2.15;;;;;;;13.77;55.09;100174.16;8715929;33;20187;-75
2021/10/01 22:52:41;;;;;;;2.55;1.67;;;;;;;13.51;56.46;100172.16;8715069;33;20183;-76
2021/10/01 22:57:48;;;;;;;4.63;1.83;;;;;;;13.45;56.99;100168.22;8716535;33;20190;-75
2021/10/01 23:02:53;;;;;;;3.38;1.98;;;;;;;13.69;56.60;100161.44;8725071;33;20401;-76
2021/10/01 23:08:00;;;;;;;3.15;2.00;;;;;;;13.62;57.38;100154.94;8716143;33;20637;-78
2021/10/01 23:13:15;;;;;;;4.10;2.30;;;;;;;13.49;57.86;100152.56;8716283;33;20442;-76
2021/10/01 23:18:38;;;;;;;3.22;2.13;;;;;;;13.40;58.55;100145.38;8705781;33;20543;-76
2021/10/01 23:51:03;;;;;;;3.97;2.08;;;;;;;13.45;58.76;100149.31;8749574;32;20532;-77
